sensor_id;sensor_type;location;lat;lon;timestamp;P1;durP1;ratioP1;P2;durP2;ratioP2
23782;SDS011;12071;50.850;4.446;2022-07-18T00:02:19;5.10;;;2.00;;
23782;SDS011;12071;50.850;4.446;2022-07-18T00:04:45;5.32;;;2.40;;
23782;SDS011;12071;50.850;4.446;2022-07-18T00:07:10;4.20;;;1.63;;
23782;SDS011;12071;50.850;4.446;2022-07-18T00:09:37;8.07;;;2.03;;
23782;SDS011;12071;50.850;4.446;2022-07-18T00:12:04;3.67;;;1.98;;
23782;SDS011;12071;50.850;4.446;2022-07-18T00:14:31;3.50;;;2.05;;
23782;SDS011;12071;50.850;4.446;2022-07-18T00:16:56;3.92;;;2.13;;
23782;SDS011;12071;50.850;4.446;2022-07-18T00:19:24;6.78;;;1.83;;
23782;SDS011;12071;50.850;4.446;2022-07-18T00:21:50;3.75;;;2.08;;
23782;SDS011;12071;50.850;4.446;2022-07-18T00:24:16;7.13;;;1.90;;
23782;SDS011;12071;50.850;4.446;2022-07-18T00:26:41;2.45;;;1.88;;
23782;SDS011;12071;50.850;4.446;2022-07-18T00:29:07;4.50;;;2.20;;
23782;SDS011;12071;50.850;4.446;2022-07-18T00:31:33;3.70;;;1.85;;
23782;SDS011;12071;50.850;4.446;2022-07-18T00:33:59;4.40;;;1.88;;
23782;SDS011;12071;50.850;4.446;2022-07-18T00:36:25;3.45;;;2.17;;
23782;SDS011;12071;50.850;4.446;2022-07-18T00:38:50;3.60;;;2.05;;
23782;SDS011;12071;50.850;4.446;2022-07-18T00:41:16;5.80;;;1.85;;
23782;SDS011;12071;50.850;4.446;2022-07-18T00:43:42;5.32;;;2.20;;
23782;SDS011;12071;50.850;4.446;2022-07-18T00:46:08;4.28;;;2.50;;
23782;SDS011;12071;50.850;4.446;2022-07-18T00:48:36;9.35;;;2.90;;
23782;SDS011;12071;50.850;4.446;2022-07-18T00:51:04;5.85;;;2.33;;
23782;SDS011;12071;50.850;4.446;2022-07-18T00:53:30;9.02;;;2.55;;
23782;SDS011;12071;50.850;4.446;2022-07-18T00:55:56;5.38;;;2.25;;
23782;SDS011;12071;50.850;4.446;2022-07-18T00:58:22;5.00;;;2.42;;
23782;SDS011;12071;50.850;4.446;2022-07-18T01:00:47;7.70;;;2.60;;
23782;SDS011;12071;50.850;4.446;2022-07-18T01:03:32;5.18;;;2.53;;
23782;SDS011;12071;50.850;4.446;2022-07-18T01:05:58;8.35;;;2.92;;
23782;SDS011;12071;50.850;4.446;2022-07-18T01:08:23;6.93;;;2.75;;
23782;SDS011;12071;50.850;4.446;2022-07-18T01:10:49;8.98;;;2.92;;
23782;SDS011;12071;50.850;4.446;2022-07-18T01:13:16;7.88;;;2.25;;
23782;SDS011;12071;50.850;4.446;2022-07-18T01:15:42;3.58;;;2.20;;
23782;SDS011;12071;50.850;4.446;2022-07-18T01:18:08;10.38;;;2.28;;
23782;SDS011;12071;50.850;4.446;2022-07-18T01:20:34;3.90;;;2.08;;
23782;SDS011;12071;50.850;4.446;2022-07-18T01:23:00;5.95;;;2.45;;
23782;SDS011;12071;50.850;4.446;2022-07-18T01:25:26;7.28;;;2.13;;
23782;SDS011;12071;50.850;4.446;2022-07-18T01:27:52;8.02;;;2.88;;
23782;SDS011;12071;50.850;4.446;2022-07-18T01:30:18;3.60;;;2.20;;
23782;SDS011;12071;50.850;4.446;2022-07-18T01:32:44;5.20;;;2.25;;
23782;SDS011;12071;50.850;4.446;2022-07-18T01:35:10;3.83;;;2.10;;
23782;SDS011;12071;50.850;4.446;2022-07-18T01:37:36;3.30;;;2.00;;
23782;SDS011;12071;50.850;4.446;2022-07-18T01:40:06;7.32;;;2.50;;
23782;SDS011;12071;50.850;4.446;2022-07-18T01:42:36;4.65;;;2.22;;
23782;SDS011;12071;50.850;4.446;2022-07-18T01:45:01;3.75;;;2.13;;
23782;SDS011;12071;50.850;4.446;2022-07-18T01:47:27;3.95;;;2.15;;
23782;SDS011;12071;50.850;4.446;2022-07-18T01:49:53;4.75;;;2.15;;
23782;SDS011;12071;50.850;4.446;2022-07-18T01:52:18;4.53;;;2.20;;
23782;SDS011;12071;50.850;4.446;2022-07-18T01:54:44;4.53;;;2.15;;
23782;SDS011;12071;50.850;4.446;2022-07-18T01:57:09;4.68;;;2.13;;
23782;SDS011;12071;50.850;4.446;2022-07-18T01:59:35;5.75;;;2.33;;
23782;SDS011;12071;50.850;4.446;2022-07-18T02:02:04;4.40;;;1.85;;
23782;SDS011;12071;50.850;4.446;2022-07-18T02:04:31;10.55;;;2.60;;
23782;SDS011;12071;50.850;4.446;2022-07-18T02:07:15;4.88;;;2.58;;
23782;SDS011;12071;50.850;4.446;2022-07-18T02:09:41;4.55;;;2.38;;
23782;SDS011;12071;50.850;4.446;2022-07-18T02:12:06;3.58;;;1.98;;
23782;SDS011;12071;50.850;4.446;2022-07-18T02:14:32;3.53;;;2.03;;
23782;SDS011;12071;50.850;4.446;2022-07-18T02:16:57;6.60;;;2.60;;
23782;SDS011;12071;50.850;4.446;2022-07-18T02:19:23;3.17;;;2.20;;
23782;SDS011;12071;50.850;4.446;2022-07-18T02:21:49;5.65;;;2.22;;
23782;SDS011;12071;50.850;4.446;2022-07-18T02:24:14;7.82;;;2.00;;
23782;SDS011;12071;50.850;4.446;2022-07-18T02:26:40;2.45;;;2.10;;
23782;SDS011;12071;50.850;4.446;2022-07-18T02:29:05;3.00;;;2.10;;
23782;SDS011;12071;50.850;4.446;2022-07-18T02:31:31;7.38;;;2.10;;
23782;SDS011;12071;50.850;4.446;2022-07-18T02:33:57;5.78;;;2.30;;
23782;SDS011;12071;50.850;4.446;2022-07-18T02:36:22;3.67;;;2.00;;
23782;SDS011;12071;50.850;4.446;2022-07-18T02:38:48;3.47;;;1.92;;
23782;SDS011;12071;50.850;4.446;2022-07-18T02:41:13;5.47;;;2.30;;
23782;SDS011;12071;50.850;4.446;2022-07-18T02:43:39;4.38;;;2.20;;
23782;SDS011;12071;50.850;4.446;2022-07-18T02:46:05;3.70;;;1.88;;
23782;SDS011;12071;50.850;4.446;2022-07-18T02:48:30;3.40;;;2.00;;
23782;SDS011;12071;50.850;4.446;2022-07-18T02:50:56;3.95;;;2.10;;
23782;SDS011;12071;50.850;4.446;2022-07-18T02:53:22;4.45;;;2.38;;
23782;SDS011;12071;50.850;4.446;2022-07-18T02:55:49;4.30;;;2.30;;
23782;SDS011;12071;50.850;4.446;2022-07-18T02:58:15;4.40;;;2.15;;
23782;SDS011;12071;50.850;4.446;2022-07-18T03:00:41;6.05;;;1.92;;
23782;SDS011;12071;50.850;4.446;2022-07-18T03:03:07;3.72;;;2.22;;
23782;SDS011;12071;50.850;4.446;2022-07-18T03:05:33;3.88;;;1.95;;
23782;SDS011;12071;50.850;4.446;2022-07-18T03:07:59;2.72;;;1.85;;
23782;SDS011;12071;50.850;4.446;2022-07-18T03:10:24;5.45;;;2.60;;
23782;SDS011;12071;50.850;4.446;2022-07-18T03:12:50;3.65;;;2.10;;
23782;SDS011;12071;50.850;4.446;2022-07-18T03:15:16;5.55;;;2.13;;
23782;SDS011;12071;50.850;4.446;2022-07-18T03:17:41;3.38;;;2.15;;
23782;SDS011;12071;50.850;4.446;2022-07-18T03:20:07;7.55;;;2.15;;
23782;SDS011;12071;50.850;4.446;2022-07-18T03:22:33;3.90;;;2.20;;
23782;SDS011;12071;50.850;4.446;2022-07-18T03:24:59;3.90;;;1.98;;
23782;SDS011;12071;50.850;4.446;2022-07-18T03:27:24;2.60;;;2.15;;
23782;SDS011;12071;50.850;4.446;2022-07-18T03:29:50;3.22;;;1.88;;
23782;SDS011;12071;50.850;4.446;2022-07-18T03:32:16;3.45;;;1.88;;
23782;SDS011;12071;50.850;4.446;2022-07-18T03:34:41;3.65;;;2.17;;
23782;SDS011;12071;50.850;4.446;2022-07-18T03:37:07;5.38;;;2.10;;
23782;SDS011;12071;50.850;4.446;2022-07-18T03:39:32;5.50;;;2.30;;
23782;SDS011;12071;50.850;4.446;2022-07-18T03:41:58;4.45;;;2.00;;
23782;SDS011;12071;50.850;4.446;2022-07-18T03:44:24;4.80;;;2.05;;
23782;SDS011;12071;50.850;4.446;2022-07-18T03:46:49;4.82;;;2.08;;
23782;SDS011;12071;50.850;4.446;2022-07-18T03:49:16;3.47;;;1.88;;
23782;SDS011;12071;50.850;4.446;2022-07-18T03:51:42;3.55;;;2.10;;
23782;SDS011;12071;50.850;4.446;2022-07-18T03:54:08;2.83;;;1.98;;
23782;SDS011;12071;50.850;4.446;2022-07-18T03:56:35;4.20;;;2.40;;
23782;SDS011;12071;50.850;4.446;2022-07-18T03:59:01;5.30;;;2.00;;
23782;SDS011;12071;50.850;4.446;2022-07-18T04:01:27;3.30;;;1.90;;
23782;SDS011;12071;50.850;4.446;2022-07-18T04:03:52;5.68;;;2.13;;
23782;SDS011;12071;50.850;4.446;2022-07-18T04:06:18;4.05;;;2.10;;
23782;SDS011;12071;50.850;4.446;2022-07-18T04:08:44;3.70;;;2.00;;
23782;SDS011;12071;50.850;4.446;2022-07-18T04:11:10;4.05;;;2.13;;
23782;SDS011;12071;50.850;4.446;2022-07-18T04:13:36;7.75;;;2.17;;
23782;SDS011;12071;50.850;4.446;2022-07-18T04:16:01;5.53;;;2.28;;
23782;SDS011;12071;50.850;4.446;2022-07-18T04:18:27;4.63;;;2.25;;
23782;SDS011;12071;50.850;4.446;2022-07-18T04:20:52;3.38;;;2.08;;
23782;SDS011;12071;50.850;4.446;2022-07-18T04:23:18;4.32;;;2.60;;
23782;SDS011;12071;50.850;4.446;2022-07-18T04:25:44;6.72;;;2.22;;
23782;SDS011;12071;50.850;4.446;2022-07-18T04:28:11;6.13;;;2.17;;
23782;SDS011;12071;50.850;4.446;2022-07-18T04:30:38;5.53;;;2.38;;
23782;SDS011;12071;50.850;4.446;2022-07-18T04:33:05;5.47;;;2.38;;
23782;SDS011;12071;50.850;4.446;2022-07-18T04:35:32;5.03;;;1.98;;
23782;SDS011;12071;50.850;4.446;2022-07-18T04:38:01;3.55;;;2.00;;
23782;SDS011;12071;50.850;4.446;2022-07-18T04:40:27;3.00;;;2.20;;
23782;SDS011;12071;50.850;4.446;2022-07-18T04:42:53;5.30;;;2.00;;
23782;SDS011;12071;50.850;4.446;2022-07-18T04:45:18;8.88;;;2.55;;
23782;SDS011;12071;50.850;4.446;2022-07-18T04:47:47;7.55;;;2.20;;
23782;SDS011;12071;50.850;4.446;2022-07-18T04:50:16;3.08;;;2.28;;
23782;SDS011;12071;50.850;4.446;2022-07-18T04:52:43;5.88;;;2.40;;
23782;SDS011;12071;50.850;4.446;2022-07-18T04:55:10;4.82;;;2.38;;
23782;SDS011;12071;50.850;4.446;2022-07-18T04:57:37;3.63;;;2.38;;
23782;SDS011;12071;50.850;4.446;2022-07-18T05:00:04;4.78;;;2.17;;
23782;SDS011;12071;50.850;4.446;2022-07-18T05:02:32;3.17;;;2.00;;
23782;SDS011;12071;50.850;4.446;2022-07-18T05:04:57;4.57;;;2.22;;
23782;SDS011;12071;50.850;4.446;2022-07-18T05:07:23;6.78;;;2.22;;
23782;SDS011;12071;50.850;4.446;2022-07-18T05:09:48;5.55;;;2.35;;
23782;SDS011;12071;50.850;4.446;2022-07-18T05:12:14;4.85;;;2.40;;
23782;SDS011;12071;50.850;4.446;2022-07-18T05:14:40;5.18;;;2.53;;
23782;SDS011;12071;50.850;4.446;2022-07-18T05:17:05;3.80;;;2.30;;
23782;SDS011;12071;50.850;4.446;2022-07-18T05:19:31;5.78;;;2.20;;
23782;SDS011;12071;50.850;4.446;2022-07-18T05:21:56;3.28;;;2.00;;
23782;SDS011;12071;50.850;4.446;2022-07-18T05:24:22;4.00;;;2.28;;
23782;SDS011;12071;50.850;4.446;2022-07-18T05:26:48;4.35;;;2.10;;
23782;SDS011;12071;50.850;4.446;2022-07-18T05:29:13;6.78;;;2.17;;
23782;SDS011;12071;50.850;4.446;2022-07-18T05:31:39;6.30;;;1.98;;
23782;SDS011;12071;50.850;4.446;2022-07-18T05:34:06;4.90;;;1.95;;
23782;SDS011;12071;50.850;4.446;2022-07-18T05:36:32;6.07;;;1.90;;
23782;SDS011;12071;50.850;4.446;2022-07-18T05:38:58;6.50;;;2.10;;
23782;SDS011;12071;50.850;4.446;2022-07-18T05:41:23;7.55;;;1.90;;
23782;SDS011;12071;50.850;4.446;2022-07-18T05:43:49;6.25;;;1.70;;
23782;SDS011;12071;50.850;4.446;2022-07-18T05:46:15;7.00;;;1.88;;
23782;SDS011;12071;50.850;4.446;2022-07-18T05:48:40;8.50;;;1.90;;
23782;SDS011;12071;50.850;4.446;2022-07-18T05:51:06;6.30;;;1.88;;
23782;SDS011;12071;50.850;4.446;2022-07-18T05:53:32;5.07;;;1.60;;
23782;SDS011;12071;50.850;4.446;2022-07-18T05:55:58;4.90;;;1.55;;
23782;SDS011;12071;50.850;4.446;2022-07-18T05:58:24;5.38;;;1.65;;
23782;SDS011;12071;50.850;4.446;2022-07-18T06:00:49;5.70;;;1.70;;
23782;SDS011;12071;50.850;4.446;2022-07-18T06:03:15;4.50;;;1.58;;
23782;SDS011;12071;50.850;4.446;2022-07-18T06:05:40;6.20;;;1.80;;
23782;SDS011;12071;50.850;4.446;2022-07-18T06:08:06;4.18;;;1.70;;
23782;SDS011;12071;50.850;4.446;2022-07-18T06:10:32;6.20;;;2.38;;
23782;SDS011;12071;50.850;4.446;2022-07-18T06:12:58;2.58;;;1.63;;
23782;SDS011;12071;50.850;4.446;2022-07-18T06:15:24;5.05;;;2.25;;
23782;SDS011;12071;50.850;4.446;2022-07-18T06:17:50;2.65;;;1.70;;
23782;SDS011;12071;50.850;4.446;2022-07-18T06:20:15;4.75;;;2.00;;
23782;SDS011;12071;50.850;4.446;2022-07-18T06:22:42;5.57;;;2.45;;
23782;SDS011;12071;50.850;4.446;2022-07-18T06:25:08;3.35;;;1.77;;
23782;SDS011;12071;50.850;4.446;2022-07-18T06:27:34;5.90;;;2.30;;
23782;SDS011;12071;50.850;4.446;2022-07-18T06:30:00;4.85;;;2.22;;
23782;SDS011;12071;50.850;4.446;2022-07-18T06:32:29;6.07;;;2.20;;
23782;SDS011;12071;50.850;4.446;2022-07-18T06:34:55;5.63;;;2.35;;
23782;SDS011;12071;50.850;4.446;2022-07-18T06:37:20;5.05;;;1.92;;
23782;SDS011;12071;50.850;4.446;2022-07-18T06:39:46;5.68;;;2.05;;
23782;SDS011;12071;50.850;4.446;2022-07-18T06:42:12;5.65;;;2.10;;
23782;SDS011;12071;50.850;4.446;2022-07-18T06:44:37;7.35;;;2.03;;
23782;SDS011;12071;50.850;4.446;2022-07-18T06:47:03;7.43;;;2.20;;
23782;SDS011;12071;50.850;4.446;2022-07-18T06:49:29;7.05;;;2.28;;
23782;SDS011;12071;50.850;4.446;2022-07-18T06:51:54;4.60;;;1.92;;
23782;SDS011;12071;50.850;4.446;2022-07-18T06:54:20;5.78;;;2.63;;
23782;SDS011;12071;50.850;4.446;2022-07-18T06:56:51;4.38;;;2.15;;
23782;SDS011;12071;50.850;4.446;2022-07-18T06:59:16;10.57;;;2.60;;
23782;SDS011;12071;50.850;4.446;2022-07-18T07:01:42;8.90;;;2.40;;
23782;SDS011;12071;50.850;4.446;2022-07-18T07:04:08;6.50;;;2.22;;
23782;SDS011;12071;50.850;4.446;2022-07-18T07:06:33;9.00;;;2.10;;
23782;SDS011;12071;50.850;4.446;2022-07-18T07:09:01;6.00;;;2.67;;
23782;SDS011;12071;50.850;4.446;2022-07-18T07:11:27;8.75;;;2.63;;
23782;SDS011;12071;50.850;4.446;2022-07-18T07:13:52;5.78;;;2.22;;
23782;SDS011;12071;50.850;4.446;2022-07-18T07:16:18;6.63;;;2.30;;
23782;SDS011;12071;50.850;4.446;2022-07-18T07:18:44;6.22;;;2.33;;
23782;SDS011;12071;50.850;4.446;2022-07-18T07:21:09;6.32;;;2.33;;
23782;SDS011;12071;50.850;4.446;2022-07-18T07:23:35;5.60;;;2.35;;
23782;SDS011;12071;50.850;4.446;2022-07-18T07:26:00;5.15;;;2.30;;
23782;SDS011;12071;50.850;4.446;2022-07-18T07:28:26;5.55;;;2.33;;
23782;SDS011;12071;50.850;4.446;2022-07-18T07:30:51;6.00;;;2.47;;
23782;SDS011;12071;50.850;4.446;2022-07-18T07:33:17;6.13;;;2.60;;
23782;SDS011;12071;50.850;4.446;2022-07-18T07:35:43;6.22;;;2.38;;
23782;SDS011;12071;50.850;4.446;2022-07-18T07:38:08;9.25;;;2.17;;
23782;SDS011;12071;50.850;4.446;2022-07-18T07:40:35;6.38;;;2.10;;
23782;SDS011;12071;50.850;4.446;2022-07-18T07:43:08;9.02;;;2.20;;
23782;SDS011;12071;50.850;4.446;2022-07-18T07:45:36;6.32;;;2.60;;
23782;SDS011;12071;50.850;4.446;2022-07-18T07:48:02;5.28;;;2.65;;
23782;SDS011;12071;50.850;4.446;2022-07-18T07:50:28;5.53;;;2.20;;
23782;SDS011;12071;50.850;4.446;2022-07-18T07:52:54;6.47;;;2.00;;
23782;SDS011;12071;50.850;4.446;2022-07-18T07:55:21;6.03;;;2.13;;
23782;SDS011;12071;50.850;4.446;2022-07-18T07:57:46;7.95;;;2.50;;
23782;SDS011;12071;50.850;4.446;2022-07-18T08:00:12;5.03;;;2.33;;
23782;SDS011;12071;50.850;4.446;2022-07-18T08:02:49;5.97;;;2.35;;
23782;SDS011;12071;50.850;4.446;2022-07-18T08:05:16;7.38;;;2.58;;
23782;SDS011;12071;50.850;4.446;2022-07-18T08:07:41;9.40;;;2.28;;
23782;SDS011;12071;50.850;4.446;2022-07-18T08:10:07;4.95;;;2.50;;
23782;SDS011;12071;50.850;4.446;2022-07-18T08:12:33;3.60;;;1.98;;
23782;SDS011;12071;50.850;4.446;2022-07-18T08:14:58;6.10;;;2.20;;
23782;SDS011;12071;50.850;4.446;2022-07-18T08:17:24;6.50;;;2.17;;
23782;SDS011;12071;50.850;4.446;2022-07-18T08:19:49;5.97;;;2.05;;
23782;SDS011;12071;50.850;4.446;2022-07-18T08:22:15;5.28;;;2.13;;
23782;SDS011;12071;50.850;4.446;2022-07-18T08:24:42;6.75;;;2.28;;
23782;SDS011;12071;50.850;4.446;2022-07-18T08:27:08;5.47;;;2.30;;
23782;SDS011;12071;50.850;4.446;2022-07-18T08:29:34;4.90;;;1.80;;
23782;SDS011;12071;50.850;4.446;2022-07-18T08:32:00;6.68;;;2.20;;
23782;SDS011;12071;50.850;4.446;2022-07-18T08:34:26;3.25;;;1.92;;
23782;SDS011;12071;50.850;4.446;2022-07-18T08:36:51;3.30;;;1.95;;
23782;SDS011;12071;50.850;4.446;2022-07-18T08:39:17;3.20;;;1.90;;
23782;SDS011;12071;50.850;4.446;2022-07-18T08:41:43;3.40;;;1.77;;
23782;SDS011;12071;50.850;4.446;2022-07-18T08:44:12;5.70;;;1.83;;
23782;SDS011;12071;50.850;4.446;2022-07-18T08:46:39;3.92;;;1.63;;
23782;SDS011;12071;50.850;4.446;2022-07-18T08:49:08;6.30;;;1.90;;
23782;SDS011;12071;50.850;4.446;2022-07-18T08:51:36;6.80;;;1.83;;
23782;SDS011;12071;50.850;4.446;2022-07-18T08:54:02;6.28;;;1.40;;
23782;SDS011;12071;50.850;4.446;2022-07-18T08:56:28;4.13;;;1.80;;
23782;SDS011;12071;50.850;4.446;2022-07-18T08:58:54;6.32;;;1.95;;
23782;SDS011;12071;50.850;4.446;2022-07-18T09:01:19;4.03;;;1.48;;
23782;SDS011;12071;50.850;4.446;2022-07-18T09:03:45;4.32;;;1.52;;
23782;SDS011;12071;50.850;4.446;2022-07-18T09:06:40;4.70;;;1.63;;
23782;SDS011;12071;50.850;4.446;2022-07-18T09:09:08;2.45;;;1.33;;
23782;SDS011;12071;50.850;4.446;2022-07-18T09:11:36;2.58;;;1.05;;
23782;SDS011;12071;50.850;4.446;2022-07-18T09:14:02;1.73;;;1.20;;
23782;SDS011;12071;50.850;4.446;2022-07-18T09:16:27;6.18;;;1.55;;
23782;SDS011;12071;50.850;4.446;2022-07-18T09:18:53;4.07;;;1.30;;
23782;SDS011;12071;50.850;4.446;2022-07-18T09:21:20;9.07;;;1.42;;
23782;SDS011;12071;50.850;4.446;2022-07-18T09:23:51;3.75;;;1.60;;
23782;SDS011;12071;50.850;4.446;2022-07-18T09:29:03;3.63;;;1.35;;
23782;SDS011;12071;50.850;4.446;2022-07-18T09:31:29;3.17;;;1.60;;
23782;SDS011;12071;50.850;4.446;2022-07-18T09:33:58;4.20;;;1.27;;
23782;SDS011;12071;50.850;4.446;2022-07-18T09:36:26;4.20;;;1.55;;
23782;SDS011;12071;50.850;4.446;2022-07-18T09:38:53;2.47;;;1.40;;
23782;SDS011;12071;50.850;4.446;2022-07-18T09:41:23;6.30;;;1.52;;
23782;SDS011;12071;50.850;4.446;2022-07-18T09:43:52;5.13;;;1.60;;
23782;SDS011;12071;50.850;4.446;2022-07-18T09:46:18;2.83;;;1.80;;
23782;SDS011;12071;50.850;4.446;2022-07-18T09:48:44;3.13;;;1.60;;
23782;SDS011;12071;50.850;4.446;2022-07-18T09:51:10;4.40;;;1.50;;
23782;SDS011;12071;50.850;4.446;2022-07-18T09:53:40;4.47;;;1.63;;
23782;SDS011;12071;50.850;4.446;2022-07-18T09:56:08;2.28;;;1.63;;
23782;SDS011;12071;50.850;4.446;2022-07-18T09:58:40;5.05;;;1.50;;
23782;SDS011;12071;50.850;4.446;2022-07-18T10:01:07;4.05;;;1.58;;
23782;SDS011;12071;50.850;4.446;2022-07-18T10:03:35;2.88;;;1.40;;
23782;SDS011;12071;50.850;4.446;2022-07-18T10:06:01;3.53;;;1.63;;
23782;SDS011;12071;50.850;4.446;2022-07-18T10:08:29;6.22;;;1.58;;
23782;SDS011;12071;50.850;4.446;2022-07-18T10:10:56;2.90;;;1.50;;
23782;SDS011;12071;50.850;4.446;2022-07-18T10:13:24;3.75;;;1.40;;
23782;SDS011;12071;50.850;4.446;2022-07-18T10:15:50;2.22;;;1.30;;
23782;SDS011;12071;50.850;4.446;2022-07-18T10:18:18;2.15;;;1.40;;
23782;SDS011;12071;50.850;4.446;2022-07-18T10:23:35;5.32;;;1.70;;
23782;SDS011;12071;50.850;4.446;2022-07-18T10:31:25;3.97;;;1.50;;
23782;SDS011;12071;50.850;4.446;2022-07-18T10:33:53;2.50;;;1.52;;
23782;SDS011;12071;50.850;4.446;2022-07-18T10:36:34;2.47;;;1.42;;
23782;SDS011;12071;50.850;4.446;2022-07-18T10:41:33;5.70;;;1.30;;
23782;SDS011;12071;50.850;4.446;2022-07-18T10:44:15;2.40;;;1.23;;
23782;SDS011;12071;50.850;4.446;2022-07-18T10:57:29;2.95;;;1.40;;
23782;SDS011;12071;50.850;4.446;2022-07-18T11:16:00;3.50;;;1.20;;
23782;SDS011;12071;50.850;4.446;2022-07-18T11:18:33;3.20;;;1.50;;
23782;SDS011;12071;50.850;4.446;2022-07-18T11:24:02;2.58;;;1.50;;
23782;SDS011;12071;50.850;4.446;2022-07-18T11:26:29;8.20;;;1.70;;
23782;SDS011;12071;50.850;4.446;2022-07-18T11:29:03;3.88;;;1.33;;
23782;SDS011;12071;50.850;4.446;2022-07-18T11:31:30;5.00;;;1.30;;
23782;SDS011;12071;50.850;4.446;2022-07-18T11:34:06;3.78;;;1.33;;
23782;SDS011;12071;50.850;4.446;2022-07-18T11:36:32;4.45;;;1.48;;
23782;SDS011;12071;50.850;4.446;2022-07-18T11:38:59;3.78;;;1.77;;
23782;SDS011;12071;50.850;4.446;2022-07-18T11:41:26;2.30;;;1.27;;
23782;SDS011;12071;50.850;4.446;2022-07-18T11:43:53;2.28;;;1.50;;
23782;SDS011;12071;50.850;4.446;2022-07-18T11:46:23;4.57;;;1.40;;
23782;SDS011;12071;50.850;4.446;2022-07-18T11:49:00;4.27;;;1.80;;
23782;SDS011;12071;50.850;4.446;2022-07-18T11:51:33;2.83;;;1.20;;
23782;SDS011;12071;50.850;4.446;2022-07-18T11:54:01;2.13;;;1.30;;
23782;SDS011;12071;50.850;4.446;2022-07-18T11:56:28;3.53;;;1.50;;
23782;SDS011;12071;50.850;4.446;2022-07-18T11:58:54;2.88;;;1.27;;
23782;SDS011;12071;50.850;4.446;2022-07-18T12:01:23;3.03;;;1.50;;
23782;SDS011;12071;50.850;4.446;2022-07-18T12:03:56;2.28;;;1.30;;
23782;SDS011;12071;50.850;4.446;2022-07-18T12:06:22;4.22;;;1.48;;
23782;SDS011;12071;50.850;4.446;2022-07-18T12:08:52;1.73;;;1.25;;
23782;SDS011;12071;50.850;4.446;2022-07-18T12:16:45;3.78;;;1.40;;
23782;SDS011;12071;50.850;4.446;2022-07-18T12:19:19;2.83;;;1.50;;
23782;SDS011;12071;50.850;4.446;2022-07-18T12:29:54;4.10;;;1.40;;
23782;SDS011;12071;50.850;4.446;2022-07-18T12:37:54;5.47;;;1.33;;
23782;SDS011;12071;50.850;4.446;2022-07-18T12:40:25;4.78;;;1.67;;
23782;SDS011;12071;50.850;4.446;2022-07-18T12:43:03;4.03;;;1.20;;
23782;SDS011;12071;50.850;4.446;2022-07-18T12:45:31;1.85;;;1.25;;
23782;SDS011;12071;50.850;4.446;2022-07-18T12:47:57;2.83;;;1.80;;
23782;SDS011;12071;50.850;4.446;2022-07-18T12:50:22;4.07;;;1.45;;
23782;SDS011;12071;50.850;4.446;2022-07-18T12:52:48;1.77;;;1.23;;
23782;SDS011;12071;50.850;4.446;2022-07-18T12:55:14;4.20;;;1.40;;
23782;SDS011;12071;50.850;4.446;2022-07-18T12:57:40;3.33;;;1.50;;
23782;SDS011;12071;50.850;4.446;2022-07-18T13:00:06;3.00;;;1.35;;
23782;SDS011;12071;50.850;4.446;2022-07-18T13:02:32;4.55;;;1.50;;
23782;SDS011;12071;50.850;4.446;2022-07-18T13:04:58;3.65;;;1.48;;
23782;SDS011;12071;50.850;4.446;2022-07-18T13:07:23;7.88;;;1.52;;
23782;SDS011;12071;50.850;4.446;2022-07-18T13:09:49;1.40;;;1.30;;
23782;SDS011;12071;50.850;4.446;2022-07-18T13:12:14;4.45;;;1.83;;
23782;SDS011;12071;50.850;4.446;2022-07-18T13:14:40;3.45;;;1.50;;
23782;SDS011;12071;50.850;4.446;2022-07-18T13:17:06;1.73;;;1.42;;
23782;SDS011;12071;50.850;4.446;2022-07-18T13:19:32;3.70;;;1.60;;
23782;SDS011;12071;50.850;4.446;2022-07-18T13:21:58;6.45;;;1.48;;
23782;SDS011;12071;50.850;4.446;2022-07-18T13:24:24;2.50;;;1.25;;
23782;SDS011;12071;50.850;4.446;2022-07-18T13:26:49;2.58;;;1.52;;
23782;SDS011;12071;50.850;4.446;2022-07-18T13:29:15;8.02;;;1.52;;
23782;SDS011;12071;50.850;4.446;2022-07-18T13:31:41;3.17;;;1.52;;
23782;SDS011;12071;50.850;4.446;2022-07-18T13:34:06;2.80;;;1.50;;
23782;SDS011;12071;50.850;4.446;2022-07-18T13:36:32;1.73;;;1.40;;
23782;SDS011;12071;50.850;4.446;2022-07-18T13:38:58;1.98;;;1.20;;
23782;SDS011;12071;50.850;4.446;2022-07-18T13:41:26;6.57;;;1.42;;
23782;SDS011;12071;50.850;4.446;2022-07-18T13:43:52;2.42;;;1.42;;
23782;SDS011;12071;50.850;4.446;2022-07-18T13:46:18;2.22;;;1.65;;
23782;SDS011;12071;50.850;4.446;2022-07-18T13:48:43;3.28;;;1.63;;
23782;SDS011;12071;50.850;4.446;2022-07-18T13:51:09;2.83;;;1.40;;
23782;SDS011;12071;50.850;4.446;2022-07-18T13:53:35;2.75;;;1.40;;
23782;SDS011;12071;50.850;4.446;2022-07-18T13:56:01;1.67;;;1.10;;
23782;SDS011;12071;50.850;4.446;2022-07-18T13:58:26;3.13;;;1.50;;
23782;SDS011;12071;50.850;4.446;2022-07-18T14:00:52;3.10;;;1.33;;
23782;SDS011;12071;50.850;4.446;2022-07-18T14:03:17;3.28;;;1.40;;
23782;SDS011;12071;50.850;4.446;2022-07-18T14:05:43;6.38;;;1.45;;
23782;SDS011;12071;50.850;4.446;2022-07-18T14:08:09;4.72;;;1.60;;
23782;SDS011;12071;50.850;4.446;2022-07-18T14:10:35;5.07;;;1.40;;
23782;SDS011;12071;50.850;4.446;2022-07-18T14:13:01;3.25;;;1.67;;
23782;SDS011;12071;50.850;4.446;2022-07-18T14:15:27;5.32;;;1.63;;
23782;SDS011;12071;50.850;4.446;2022-07-18T14:17:53;3.40;;;1.23;;
23782;SDS011;12071;50.850;4.446;2022-07-18T14:20:18;4.03;;;1.45;;
23782;SDS011;12071;50.850;4.446;2022-07-18T14:22:46;4.20;;;1.48;;
23782;SDS011;12071;50.850;4.446;2022-07-18T14:25:12;2.42;;;1.60;;
23782;SDS011;12071;50.850;4.446;2022-07-18T14:27:40;2.65;;;1.48;;
23782;SDS011;12071;50.850;4.446;2022-07-18T14:30:06;4.15;;;1.42;;
23782;SDS011;12071;50.850;4.446;2022-07-18T14:32:34;1.98;;;1.60;;
23782;SDS011;12071;50.850;4.446;2022-07-18T14:34:59;4.30;;;1.42;;
23782;SDS011;12071;50.850;4.446;2022-07-18T14:37:25;5.45;;;1.50;;
23782;SDS011;12071;50.850;4.446;2022-07-18T14:39:51;4.43;;;1.58;;
23782;SDS011;12071;50.850;4.446;2022-07-18T14:42:16;5.63;;;1.50;;
23782;SDS011;12071;50.850;4.446;2022-07-18T14:44:42;4.68;;;1.42;;
23782;SDS011;12071;50.850;4.446;2022-07-18T14:47:07;3.03;;;1.67;;
23782;SDS011;12071;50.850;4.446;2022-07-18T14:49:34;2.97;;;1.35;;
23782;SDS011;12071;50.850;4.446;2022-07-18T14:51:59;4.47;;;1.60;;
23782;SDS011;12071;50.850;4.446;2022-07-18T14:54:27;2.80;;;1.30;;
23782;SDS011;12071;50.850;4.446;2022-07-18T14:56:53;4.20;;;1.40;;
23782;SDS011;12071;50.850;4.446;2022-07-18T14:59:19;2.05;;;1.40;;
23782;SDS011;12071;50.850;4.446;2022-07-18T15:01:46;3.47;;;1.35;;
23782;SDS011;12071;50.850;4.446;2022-07-18T15:04:11;3.50;;;1.48;;
23782;SDS011;12071;50.850;4.446;2022-07-18T15:06:37;5.60;;;1.30;;
23782;SDS011;12071;50.850;4.446;2022-07-18T15:09:05;3.42;;;1.65;;
23782;SDS011;12071;50.850;4.446;2022-07-18T15:11:31;5.05;;;1.67;;
23782;SDS011;12071;50.850;4.446;2022-07-18T15:13:57;2.53;;;1.50;;
23782;SDS011;12071;50.850;4.446;2022-07-18T15:16:23;4.50;;;1.55;;
23782;SDS011;12071;50.850;4.446;2022-07-18T15:18:48;3.70;;;1.40;;
23782;SDS011;12071;50.850;4.446;2022-07-18T15:21:15;3.47;;;1.30;;
23782;SDS011;12071;50.850;4.446;2022-07-18T15:23:41;2.00;;;1.45;;
23782;SDS011;12071;50.850;4.446;2022-07-18T15:26:07;1.60;;;1.30;;
23782;SDS011;12071;50.850;4.446;2022-07-18T15:28:32;4.68;;;1.77;;
23782;SDS011;12071;50.850;4.446;2022-07-18T15:30:58;3.50;;;1.20;;
23782;SDS011;12071;50.850;4.446;2022-07-18T15:33:24;3.90;;;1.60;;
23782;SDS011;12071;50.850;4.446;2022-07-18T15:35:49;4.15;;;1.35;;
23782;SDS011;12071;50.850;4.446;2022-07-18T15:38:15;2.92;;;1.50;;
23782;SDS011;12071;50.850;4.446;2022-07-18T15:40:41;5.15;;;1.48;;
23782;SDS011;12071;50.850;4.446;2022-07-18T15:43:07;3.78;;;1.48;;
23782;SDS011;12071;50.850;4.446;2022-07-18T15:45:33;2.42;;;1.38;;
23782;SDS011;12071;50.850;4.446;2022-07-18T15:47:59;2.22;;;1.50;;